sensor_id;sensor_type;location;lat;lon;timestamp;pressure;altitude;pressure_sealevel;temperature;humidity
46876;BME280;32866;50.160;14.768;2023-04-16T00:01:23;99084.75;;;4.36;100.00
46876;BME280;32866;50.160;14.768;2023-04-16T00:03:49;99108.44;;;4.28;100.00
46876;BME280;32866;50.160;14.768;2023-04-16T00:06:14;99126.31;;;4.68;100.00
46876;BME280;32866;50.160;14.768;2023-04-16T00:08:40;99122.31;;;4.79;100.00
46876;BME280;32866;50.160;14.768;2023-04-16T00:11:07;99090.09;;;4.43;100.00
46876;BME280;32866;50.160;14.768;2023-04-16T00:13:33;99120.13;;;4.63;100.00
46876;BME280;32866;50.160;14.768;2023-04-16T00:15:58;99125.06;;;4.72;100.00
46876;BME280;32866;50.160;14.768;2023-04-16T00:18:23;99128.75;;;4.55;100.00
46876;BME280;32866;50.160;14.768;2023-04-16T00:20:49;99086.38;;;4.26;100.00
46876;BME280;32866;50.160;14.768;2023-04-16T00:23:15;99113.22;;;4.55;100.00
46876;BME280;32866;50.160;14.768;2023-04-16T00:25:41;99078.44;;;4.46;100.00
46876;BME280;32866;50.160;14.768;2023-04-16T00:28:07;99115.47;;;4.98;100.00
46876;BME280;32866;50.160;14.768;2023-04-16T00:30:33;99122.81;;;5.01;100.00
46876;BME280;32866;50.160;14.768;2023-04-16T00:32:58;99115.19;;;4.93;100.00
46876;BME280;32866;50.160;14.768;2023-04-16T00:35:24;99093.75;;;4.64;100.00
46876;BME280;32866;50.160;14.768;2023-04-16T00:37:49;99078.66;;;4.63;100.00
46876;BME280;32866;50.160;14.768;2023-04-16T00:40:15;99120.63;;;4.89;100.00
46876;BME280;32866;50.160;14.768;2023-04-16T00:42:40;99088.38;;;4.60;100.00
46876;BME280;32866;50.160;14.768;2023-04-16T00:45:06;99118.00;;;4.82;100.00
46876;BME280;32866;50.160;14.768;2023-04-16T00:47:32;99123.03;;;4.83;100.00
46876;BME280;32866;50.160;14.768;2023-04-16T00:49:58;99116.88;;;4.76;100.00
46876;BME280;32866;50.160;14.768;2023-04-16T00:52:24;99125.47;;;4.74;100.00
46876;BME280;32866;50.160;14.768;2023-04-16T00:54:50;99120.09;;;4.67;100.00
46876;BME280;32866;50.160;14.768;2023-04-16T00:57:25;99118.66;;;4.55;100.00
46876;BME280;32866;50.160;14.768;2023-04-16T00:59:53;99123.16;;;4.73;100.00
46876;BME280;32866;50.160;14.768;2023-04-16T01:02:18;99098.50;;;4.56;100.00
46876;BME280;32866;50.160;14.768;2023-04-16T01:04:43;99133.94;;;4.80;100.00
46876;BME280;32866;50.160;14.768;2023-04-16T01:07:09;99131.53;;;4.86;100.00
46876;BME280;32866;50.160;14.768;2023-04-16T01:09:34;99095.78;;;4.56;100.00
46876;BME280;32866;50.160;14.768;2023-04-16T01:12:00;99105.44;;;4.61;100.00
46876;BME280;32866;50.160;14.768;2023-04-16T01:14:26;99137.69;;;4.90;100.00
46876;BME280;32866;50.160;14.768;2023-04-16T01:16:51;99139.66;;;4.86;100.00
46876;BME280;32866;50.160;14.768;2023-04-16T01:19:16;99112.44;;;4.58;100.00
46876;BME280;32866;50.160;14.768;2023-04-16T01:21:42;99145.41;;;4.95;100.00
46876;BME280;32866;50.160;14.768;2023-04-16T01:24:07;99145.31;;;5.02;100.00
46876;BME280;32866;50.160;14.768;2023-04-16T01:26:32;99149.00;;;5.19;100.00
46876;BME280;32866;50.160;14.768;2023-04-16T01:28:58;99153.91;;;4.97;100.00
46876;BME280;32866;50.160;14.768;2023-04-16T01:31:24;99153.25;;;4.86;100.00
46876;BME280;32866;50.160;14.768;2023-04-16T01:33:50;99156.66;;;4.93;100.00
46876;BME280;32866;50.160;14.768;2023-04-16T01:36:15;99133.34;;;4.61;100.00
46876;BME280;32866;50.160;14.768;2023-04-16T01:38:41;99148.44;;;4.66;100.00
46876;BME280;32866;50.160;14.768;2023-04-16T01:41:06;99118.44;;;4.77;100.00
46876;BME280;32866;50.160;14.768;2023-04-16T01:43:32;99162.16;;;4.90;100.00
46876;BME280;32866;50.160;14.768;2023-04-16T01:46:12;99133.75;;;4.98;100.00
46876;BME280;32866;50.160;14.768;2023-04-16T01:48:39;99156.97;;;4.99;100.00
46876;BME280;32866;50.160;14.768;2023-04-16T01:51:04;99137.16;;;4.68;100.00
46876;BME280;32866;50.160;14.768;2023-04-16T01:53:30;99126.31;;;4.68;100.00
46876;BME280;32866;50.160;14.768;2023-04-16T01:55:55;99144.44;;;4.78;100.00
46876;BME280;32866;50.160;14.768;2023-04-16T01:58:21;99159.28;;;5.00;100.00
46876;BME280;32866;50.160;14.768;2023-04-16T02:00:46;99161.03;;;4.83;100.00
46876;BME280;32866;50.160;14.768;2023-04-16T02:03:11;99164.09;;;4.86;100.00
46876;BME280;32866;50.160;14.768;2023-04-16T02:05:37;99163.88;;;4.73;100.00
46876;BME280;32866;50.160;14.768;2023-04-16T02:08:02;99163.84;;;4.76;100.00
46876;BME280;32866;50.160;14.768;2023-04-16T02:10:27;99154.88;;;4.79;100.00
46876;BME280;32866;50.160;14.768;2023-04-16T02:12:53;99138.50;;;4.49;100.00
46876;BME280;32866;50.160;14.768;2023-04-16T02:15:18;99157.16;;;4.85;100.00
46876;BME280;32866;50.160;14.768;2023-04-16T02:17:44;99156.97;;;4.99;100.00
46876;BME280;32866;50.160;14.768;2023-04-16T02:20:10;99146.41;;;5.08;100.00
46876;BME280;32866;50.160;14.768;2023-04-16T02:22:36;99144.56;;;5.01;100.00
46876;BME280;32866;50.160;14.768;2023-04-16T02:25:01;99117.09;;;4.58;100.00
46876;BME280;32866;50.160;14.768;2023-04-16T02:27:27;99159.28;;;5.00;100.00
46876;BME280;32866;50.160;14.768;2023-04-16T02:29:52;99121.97;;;4.74;100.00
46876;BME280;32866;50.160;14.768;2023-04-16T02:32:18;99115.44;;;4.68;100.00
46876;BME280;32866;50.160;14.768;2023-04-16T02:34:43;99113.84;;;4.70;100.00
46876;BME280;32866;50.160;14.768;2023-04-16T02:37:08;99160.94;;;4.91;100.00
46876;BME280;32866;50.160;14.768;2023-04-16T02:39:34;99157.97;;;4.81;100.00
46876;BME280;32866;50.160;14.768;2023-04-16T02:41:59;99169.97;;;4.80;100.00
46876;BME280;32866;50.160;14.768;2023-04-16T02:44:26;99175.06;;;4.78;100.00
46876;BME280;32866;50.160;14.768;2023-04-16T02:46:52;99169.31;;;4.69;100.00
46876;BME280;32866;50.160;14.768;2023-04-16T02:49:17;99172.53;;;4.57;100.00
46876;BME280;32866;50.160;14.768;2023-04-16T02:51:42;99188.25;;;4.76;100.00
46876;BME280;32866;50.160;14.768;2023-04-16T02:54:08;99165.16;;;4.61;100.00
46876;BME280;32866;50.160;14.768;2023-04-16T02:56:33;99188.31;;;4.69;100.00
46876;BME280;32866;50.160;14.768;2023-04-16T02:58:58;99167.19;;;4.50;100.00
46876;BME280;32866;50.160;14.768;2023-04-16T03:01:24;99192.63;;;4.67;100.00
46876;BME280;32866;50.160;14.768;2023-04-16T03:03:49;99149.00;;;4.46;100.00
46876;BME280;32866;50.160;14.768;2023-04-16T03:06:15;99193.06;;;4.61;100.00
46876;BME280;32866;50.160;14.768;2023-04-16T03:08:40;99192.09;;;4.79;100.00
46876;BME280;32866;50.160;14.768;2023-04-16T03:11:05;99191.47;;;4.64;100.00
46876;BME280;32866;50.160;14.768;2023-04-16T03:13:31;99158.78;;;4.33;100.00
46876;BME280;32866;50.160;14.768;2023-04-16T03:15:57;99149.94;;;4.25;100.00
46876;BME280;32866;50.160;14.768;2023-04-16T03:18:22;99165.28;;;4.46;100.00
46876;BME280;32866;50.160;14.768;2023-04-16T03:20:51;99154.63;;;4.21;100.00
46876;BME280;32866;50.160;14.768;2023-04-16T03:23:17;99150.03;;;4.15;100.00
46876;BME280;32866;50.160;14.768;2023-04-16T03:25:42;99157.44;;;4.07;100.00
46876;BME280;32866;50.160;14.768;2023-04-16T03:28:10;99169.81;;;4.12;100.00
46876;BME280;32866;50.160;14.768;2023-04-16T03:30:36;99191.72;;;4.35;100.00
46876;BME280;32866;50.160;14.768;2023-04-16T03:33:02;99202.94;;;4.37;100.00
46876;BME280;32866;50.160;14.768;2023-04-16T03:35:27;99161.81;;;3.97;100.00
46876;BME280;32866;50.160;14.768;2023-04-16T03:37:52;99163.03;;;3.82;100.00
46876;BME280;32866;50.160;14.768;2023-04-16T03:40:18;99202.69;;;4.21;100.00
46876;BME280;32866;50.160;14.768;2023-04-16T03:42:43;99172.69;;;3.90;100.00
46876;BME280;32866;50.160;14.768;2023-04-16T03:45:09;99162.19;;;3.92;100.00
46876;BME280;32866;50.160;14.768;2023-04-16T03:47:34;99201.88;;;4.24;100.00
46876;BME280;32866;50.160;14.768;2023-04-16T03:50:00;99206.66;;;4.05;100.00
46876;BME280;32866;50.160;14.768;2023-04-16T03:52:25;99172.81;;;3.68;100.00
46876;BME280;32866;50.160;14.768;2023-04-16T03:54:52;99171.19;;;3.82;100.00
46876;BME280;32866;50.160;14.768;2023-04-16T03:57:17;99219.06;;;4.06;100.00
46876;BME280;32866;50.160;14.768;2023-04-16T03:59:43;99216.84;;;3.87;100.00
46876;BME280;32866;50.160;14.768;2023-04-16T04:02:08;99208.28;;;3.92;100.00
46876;BME280;32866;50.160;14.768;2023-04-16T04:04:33;99219.63;;;3.76;100.00
46876;BME280;32866;50.160;14.768;2023-04-16T04:06:59;99221.19;;;3.77;100.00
46876;BME280;32866;50.160;14.768;2023-04-16T04:09:24;99222.34;;;3.76;100.00
46876;BME280;32866;50.160;14.768;2023-04-16T04:11:50;99226.13;;;3.93;100.00
46876;BME280;32866;50.160;14.768;2023-04-16T04:14:16;99238.47;;;4.01;100.00
46876;BME280;32866;50.160;14.768;2023-04-16T04:16:41;99236.97;;;3.89;100.00
46876;BME280;32866;50.160;14.768;2023-04-16T04:19:06;99211.56;;;3.65;100.00
46876;BME280;32866;50.160;14.768;2023-04-16T04:21:32;99213.19;;;3.45;100.00
46876;BME280;32866;50.160;14.768;2023-04-16T04:23:57;99200.81;;;3.44;100.00
46876;BME280;32866;50.160;14.768;2023-04-16T04:26:22;99247.50;;;3.77;100.00
46876;BME280;32866;50.160;14.768;2023-04-16T04:28:48;99237.84;;;3.76;100.00
46876;BME280;32866;50.160;14.768;2023-04-16T04:31:13;99264.06;;;3.93;100.00
46876;BME280;32866;50.160;14.768;2023-04-16T04:33:39;99274.16;;;3.93;100.00
46876;BME280;32866;50.160;14.768;2023-04-16T04:36:04;99262.81;;;4.08;100.00
46876;BME280;32866;50.160;14.768;2023-04-16T04:38:30;99272.88;;;4.12;100.00
46876;BME280;32866;50.160;14.768;2023-04-16T04:40:55;99276.28;;;4.26;100.00
46876;BME280;32866;50.160;14.768;2023-04-16T04:43:21;99253.16;;;4.07;100.00
46876;BME280;32866;50.160;14.768;2023-04-16T04:48:19;99295.66;;;4.25;100.00
46876;BME280;32866;50.160;14.768;2023-04-16T04:50:50;99275.28;;;4.02;100.00
46876;BME280;32866;50.160;14.768;2023-04-16T04:53:15;99276.34;;;4.12;100.00
46876;BME280;32866;50.160;14.768;2023-04-16T04:55:41;99265.88;;;4.18;100.00
46876;BME280;32866;50.160;14.768;2023-04-16T04:58:07;99309.41;;;4.59;100.00
46876;BME280;32866;50.160;14.768;2023-04-16T05:00:33;99314.84;;;4.52;100.00
46876;BME280;32866;50.160;14.768;2023-04-16T05:03:05;99325.28;;;4.61;100.00
46876;BME280;32866;50.160;14.768;2023-04-16T05:05:33;99323.38;;;4.58;100.00
46876;BME280;32866;50.160;14.768;2023-04-16T05:07:58;99280.78;;;4.48;100.00
46876;BME280;32866;50.160;14.768;2023-04-16T05:10:24;99302.56;;;4.37;100.00
46876;BME280;32866;50.160;14.768;2023-04-16T05:12:49;99330.66;;;4.68;100.00
46876;BME280;32866;50.160;14.768;2023-04-16T05:15:15;99308.31;;;4.50;100.00
46876;BME280;32866;50.160;14.768;2023-04-16T05:17:40;99340.75;;;4.68;100.00
46876;BME280;32866;50.160;14.768;2023-04-16T05:20:07;99336.38;;;4.81;100.00
46876;BME280;32866;50.160;14.768;2023-04-16T05:22:33;99341.41;;;4.86;100.00
46876;BME280;32866;50.160;14.768;2023-04-16T05:24:58;99324.78;;;4.77;100.00
46876;BME280;32866;50.160;14.768;2023-04-16T05:27:24;99345.88;;;5.07;100.00
46876;BME280;32866;50.160;14.768;2023-04-16T05:29:49;99337.69;;;5.11;100.00
46876;BME280;32866;50.160;14.768;2023-04-16T05:32:15;99343.84;;;5.18;100.00
46876;BME280;32866;50.160;14.768;2023-04-16T05:34:40;99298.16;;;5.06;100.00
46876;BME280;32866;50.160;14.768;2023-04-16T05:37:05;99325.53;;;5.23;100.00
46876;BME280;32866;50.160;14.768;2023-04-16T05:39:31;99326.53;;;5.39;100.00
46876;BME280;32866;50.160;14.768;2023-04-16T05:41:56;99313.06;;;5.29;100.00
46876;BME280;32866;50.160;14.768;2023-04-16T05:44:22;99333.56;;;5.37;100.00
46876;BME280;32866;50.160;14.768;2023-04-16T05:46:47;99352.78;;;5.57;100.00
46876;BME280;32866;50.160;14.768;2023-04-16T05:49:12;99325.84;;;5.32;100.00
46876;BME280;32866;50.160;14.768;2023-04-16T05:51:38;99325.72;;;5.43;100.00
46876;BME280;32866;50.160;14.768;2023-04-16T05:54:03;99355.44;;;5.61;100.00
46876;BME280;32866;50.160;14.768;2023-04-16T05:56:28;99344.09;;;5.69;100.00
46876;BME280;32866;50.160;14.768;2023-04-16T05:58:54;99362.22;;;5.80;100.00
46876;BME280;32866;50.160;14.768;2023-04-16T06:01:20;99357.13;;;5.85;100.00
46876;BME280;32866;50.160;14.768;2023-04-16T06:03:45;99318.13;;;5.65;100.00
46876;BME280;32866;50.160;14.768;2023-04-16T06:06:11;99364.78;;;5.98;100.00
46876;BME280;32866;50.160;14.768;2023-04-16T06:08:36;99346.50;;;5.64;100.00
46876;BME280;32866;50.160;14.768;2023-04-16T06:11:02;99362.06;;;5.98;100.00
46876;BME280;32866;50.160;14.768;2023-04-16T06:13:27;99367.13;;;5.95;100.00
46876;BME280;32866;50.160;14.768;2023-04-16T06:15:53;99335.63;;;5.64;100.00
46876;BME280;32866;50.160;14.768;2023-04-16T06:18:18;99354.88;;;5.80;100.00
46876;BME280;32866;50.160;14.768;2023-04-16T06:20:44;99377.84;;;6.10;100.00
46876;BME280;32866;50.160;14.768;2023-04-16T06:23:09;99365.88;;;6.35;100.00
46876;BME280;32866;50.160;14.768;2023-04-16T06:25:35;99373.34;;;6.58;100.00
46876;BME280;32866;50.160;14.768;2023-04-16T06:28:00;99346.28;;;6.47;100.00
46876;BME280;32866;50.160;14.768;2023-04-16T06:30:25;99347.34;;;6.53;100.00
46876;BME280;32866;50.160;14.768;2023-04-16T06:32:51;99375.84;;;6.99;100.00
46876;BME280;32866;50.160;14.768;2023-04-16T06:35:17;99378.34;;;7.37;100.00
46876;BME280;32866;50.160;14.768;2023-04-16T06:37:44;99378.34;;;7.37;100.00
46876;BME280;32866;50.160;14.768;2023-04-16T06:40:10;99389.69;;;7.56;100.00
46876;BME280;32866;50.160;14.768;2023-04-16T06:42:35;99374.13;;;7.76;100.00
46876;BME280;32866;50.160;14.768;2023-04-16T06:45:01;99391.00;;;8.11;100.00
46876;BME280;32866;50.160;14.768;2023-04-16T06:47:26;99383.16;;;8.13;100.00
46876;BME280;32866;50.160;14.768;2023-04-16T06:49:52;99366.63;;;8.21;100.00
46876;BME280;32866;50.160;14.768;2023-04-16T06:52:17;99386.25;;;8.88;100.00
46876;BME280;32866;50.160;14.768;2023-04-16T06:54:43;99356.50;;;8.74;100.00
46876;BME280;32866;50.160;14.768;2023-04-16T06:57:08;99370.50;;;9.25;100.00
46876;BME280;32866;50.160;14.768;2023-04-16T06:59:33;99387.84;;;9.35;100.00
46876;BME280;32866;50.160;14.768;2023-04-16T07:01:59;99375.69;;;9.36;100.00
46876;BME280;32866;50.160;14.768;2023-04-16T07:04:24;99394.63;;;9.60;100.00
46876;BME280;32866;50.160;14.768;2023-04-16T07:06:50;99381.59;;;9.18;100.00
46876;BME280;32866;50.160;14.768;2023-04-16T07:09:15;99397.75;;;9.45;100.00
46876;BME280;32866;50.160;14.768;2023-04-16T07:11:42;99368.03;;;9.15;100.00
46876;BME280;32866;50.160;14.768;2023-04-16T07:14:08;99400.16;;;9.27;100.00
46876;BME280;32866;50.160;14.768;2023-04-16T07:16:33;99376.75;;;9.26;100.00
46876;BME280;32866;50.160;14.768;2023-04-16T07:18:58;99400.56;;;9.42;100.00
46876;BME280;32866;50.160;14.768;2023-04-16T07:21:24;99360.94;;;9.34;100.00
46876;BME280;32866;50.160;14.768;2023-04-16T07:23:50;99415.25;;;9.48;100.00
46876;BME280;32866;50.160;14.768;2023-04-16T07:26:16;99418.06;;;9.90;100.00
46876;BME280;32866;50.160;14.768;2023-04-16T07:28:41;99389.44;;;10.08;100.00
46876;BME280;32866;50.160;14.768;2023-04-16T07:31:06;99422.09;;;10.44;100.00
46876;BME280;32866;50.160;14.768;2023-04-16T07:33:32;99425.63;;;10.28;100.00
46876;BME280;32866;50.160;14.768;2023-04-16T07:35:57;99433.81;;;10.45;100.00
46876;BME280;32866;50.160;14.768;2023-04-16T07:38:23;99424.72;;;10.61;100.00
46876;BME280;32866;50.160;14.768;2023-04-16T07:40:48;99410.03;;;10.67;100.00
46876;BME280;32866;50.160;14.768;2023-04-16T07:43:14;99400.19;;;10.15;100.00
46876;BME280;32866;50.160;14.768;2023-04-16T07:45:40;99438.00;;;10.62;100.00
46876;BME280;32866;50.160;14.768;2023-04-16T07:48:05;99434.72;;;10.93;100.00
46876;BME280;32866;50.160;14.768;2023-04-16T07:50:31;99407.53;;;10.99;100.00
46876;BME280;32866;50.160;14.768;2023-04-16T07:52:56;99442.63;;;11.64;100.00
46876;BME280;32866;50.160;14.768;2023-04-16T07:55:22;99443.28;;;10.69;100.00
46876;BME280;32866;50.160;14.768;2023-04-16T07:57:47;99445.81;;;10.89;100.00
46876;BME280;32866;50.160;14.768;2023-04-16T08:00:13;99409.63;;;10.14;100.00
46876;BME280;32866;50.160;14.768;2023-04-16T08:02:38;99449.25;;;10.38;100.00
46876;BME280;32866;50.160;14.768;2023-04-16T08:05:04;99424.91;;;10.40;100.00
46876;BME280;32866;50.160;14.768;2023-04-16T08:07:30;99429.56;;;10.56;100.00
46876;BME280;32866;50.160;14.768;2023-04-16T08:09:55;99430.25;;;10.31;100.00
46876;BME280;32866;50.160;14.768;2023-04-16T08:12:21;99421.22;;;10.60;100.00
46876;BME280;32866;50.160;14.768;2023-04-16T08:14:46;99446.56;;;11.16;100.00
46876;BME280;32866;50.160;14.768;2023-04-16T08:17:15;99447.66;;;10.80;100.00
46876;BME280;32866;50.160;14.768;2023-04-16T08:19:42;99446.09;;;10.66;100.00
46876;BME280;32866;50.160;14.768;2023-04-16T08:22:09;99410.94;;;10.64;100.00
46876;BME280;32866;50.160;14.768;2023-04-16T08:24:35;99457.09;;;10.79;100.00
46876;BME280;32866;50.160;14.768;2023-04-16T08:27:00;99417.09;;;10.26;100.00
46876;BME280;32866;50.160;14.768;2023-04-16T08:29:25;99415.09;;;10.56;100.00
46876;BME280;32866;50.160;14.768;2023-04-16T08:31:52;99444.78;;;10.45;100.00
46876;BME280;32866;50.160;14.768;2023-04-16T08:34:17;99414.34;;;10.26;100.00
46876;BME280;32866;50.160;14.768;2023-04-16T08:36:43;99411.16;;;10.15;100.00
46876;BME280;32866;50.160;14.768;2023-04-16T08:39:08;99448.38;;;10.42;100.00
46876;BME280;32866;50.160;14.768;2023-04-16T08:41:35;99423.31;;;10.82;100.00
46876;BME280;32866;50.160;14.768;2023-04-16T08:44:12;99454.22;;;11.21;100.00
46876;BME280;32866;50.160;14.768;2023-04-16T08:46:39;99425.28;;;11.20;100.00
46876;BME280;32866;50.160;14.768;2023-04-16T08:49:06;99468.88;;;11.65;100.00
46876;BME280;32866;50.160;14.768;2023-04-16T08:51:35;99472.34;;;11.79;100.00
46876;BME280;32866;50.160;14.768;2023-04-16T08:54:11;99474.97;;;12.39;100.00
46876;BME280;32866;50.160;14.768;2023-04-16T08:56:40;99473.09;;;12.36;100.00
46876;BME280;32866;50.160;14.768;2023-04-16T08:59:06;99471.47;;;13.02;100.00
46876;BME280;32866;50.160;14.768;2023-04-16T09:01:34;99474.75;;;14.24;100.00
46876;BME280;32866;50.160;14.768;2023-04-16T09:03:59;99469.50;;;14.63;100.00
46876;BME280;32866;50.160;14.768;2023-04-16T09:06:26;99477.78;;;14.35;100.00
46876;BME280;32866;50.160;14.768;2023-04-16T09:08:51;99478.94;;;14.80;100.00
46876;BME280;32866;50.160;14.768;2023-04-16T09:11:17;99474.25;;;14.62;100.00
46876;BME280;32866;50.160;14.768;2023-04-16T09:13:43;99450.19;;;14.54;100.00
46876;BME280;32866;50.160;14.768;2023-04-16T09:16:09;99484.94;;;15.70;100.00
46876;BME280;32866;50.160;14.768;2023-04-16T09:18:36;99449.25;;;16.20;100.00
46876;BME280;32866;50.160;14.768;2023-04-16T09:21:01;99482.34;;;17.39;100.00
46876;BME280;32866;50.160;14.768;2023-04-16T09:23:28;99478.56;;;17.57;100.00
46876;BME280;32866;50.160;14.768;2023-04-16T09:25:54;99479.25;;;17.73;94.55
46876;BME280;32866;50.160;14.768;2023-04-16T09:28:39;99473.31;;;18.01;93.70
46876;BME280;32866;50.160;14.768;2023-04-16T09:31:13;99470.91;;;17.88;96.69
46876;BME280;32866;50.160;14.768;2023-04-16T09:33:39;99483.09;;;17.96;82.34
46876;BME280;32866;50.160;14.768;2023-04-16T09:36:05;99481.69;;;17.65;79.10
46876;BME280;32866;50.160;14.768;2023-04-16T09:38:50;99475.13;;;17.83;79.09
46876;BME280;32866;50.160;14.768;2023-04-16T09:41:16;99471.25;;;17.95;78.55
46876;BME280;32866;50.160;14.768;2023-04-16T09:44:02;99481.00;;;18.38;77.29
46876;BME280;32866;50.160;14.768;2023-04-16T09:46:36;99479.59;;;18.22;79.24
46876;BME280;32866;50.160;14.768;2023-04-16T09:49:08;99469.53;;;19.14;73.65
46876;BME280;32866;50.160;14.768;2023-04-16T09:51:39;99483.28;;;17.16;79.85
46876;BME280;32866;50.160;14.768;2023-04-16T09:54:11;99486.28;;;15.84;86.28
46876;BME280;32866;50.160;14.768;2023-04-16T09:56:45;99491.56;;;17.16;81.75
46876;BME280;32866;50.160;14.768;2023-04-16T09:59:17;99475.59;;;18.81;77.68
46876;BME280;32866;50.160;14.768;2023-04-16T10:01:42;99466.06;;;16.61;80.06
46876;BME280;32866;50.160;14.768;2023-04-16T10:04:10;99460.69;;;17.38;77.28
46876;BME280;32866;50.160;14.768;2023-04-16T10:06:35;99490.50;;;18.83;76.62
46876;BME280;32866;50.160;14.768;2023-04-16T10:09:05;99488.31;;;19.31;74.26
46876;BME280;32866;50.160;14.768;2023-04-16T10:11:31;99462.81;;;18.63;73.00
46876;BME280;32866;50.160;14.768;2023-04-16T10:13:57;99489.84;;;17.33;80.24
46876;BME280;32866;50.160;14.768;2023-04-16T10:16:22;99491.56;;;17.87;78.90
46876;BME280;32866;50.160;14.768;2023-04-16T10:18:48;99499.53;;;18.26;75.73
46876;BME280;32866;50.160;14.768;2023-04-16T10:21:13;99496.34;;;20.43;72.20
46876;BME280;32866;50.160;14.768;2023-04-16T10:23:41;99493.66;;;19.83;61.78
46876;BME280;32866;50.160;14.768;2023-04-16T10:26:07;99482.31;;;21.73;54.35
46876;BME280;32866;50.160;14.768;2023-04-16T10:28:32;99493.13;;;21.94;53.72
46876;BME280;32866;50.160;14.768;2023-04-16T10:31:01;99491.59;;;23.37;49.40
46876;BME280;32866;50.160;14.768;2023-04-16T10:33:29;99491.09;;;24.01;46.68
46876;BME280;32866;50.160;14.768;2023-04-16T10:38:33;99488.72;;;24.62;41.22
46876;BME280;32866;50.160;14.768;2023-04-16T10:41:02;99490.44;;;25.11;42.37
46876;BME280;32866;50.160;14.768;2023-04-16T10:43:29;99489.25;;;25.86;38.71
46876;BME280;32866;50.160;14.768;2023-04-16T10:45:55;99489.84;;;23.03;44.65
46876;BME280;32866;50.160;14.768;2023-04-16T10:48:23;99490.31;;;21.01;47.27
46876;BME280;32866;50.160;14.768;2023-04-16T10:50:55;99484.69;;;22.52;44.75
46876;BME280;32866;50.160;14.768;2023-04-16T10:53:24;99489.75;;;24.91;44.43
46876;BME280;32866;50.160;14.768;2023-04-16T10:55:57;99474.97;;;26.11;38.16
46876;BME280;32866;50.160;14.768;2023-04-16T10:58:29;99467.50;;;25.66;37.37
46876;BME280;32866;50.160;14.768;2023-04-16T11:00:58;99487.94;;;22.56;41.19
46876;BME280;32866;50.160;14.768;2023-04-16T11:03:24;99477.00;;;22.58;40.82
46876;BME280;32866;50.160;14.768;2023-04-16T11:05:49;99453.72;;;22.50;43.05
46876;BME280;32866;50.160;14.768;2023-04-16T11:08:15;99466.31;;;23.23;40.72
46876;BME280;32866;50.160;14.768;2023-04-16T11:10:41;99481.09;;;21.52;43.75
46876;BME280;32866;50.160;14.768;2023-04-16T11:13:06;99482.03;;;22.30;45.06
46876;BME280;32866;50.160;14.768;2023-04-16T11:15:33;99485.16;;;24.42;39.86
46876;BME280;32866;50.160;14.768;2023-04-16T11:17:59;99477.75;;;24.26;39.22
46876;BME280;32866;50.160;14.768;2023-04-16T11:20:26;99477.22;;;25.51;36.16
46876;BME280;32866;50.160;14.768;2023-04-16T11:22:56;99481.06;;;24.62;38.75
46876;BME280;32866;50.160;14.768;2023-04-16T11:25:24;99464.22;;;25.75;36.63
46876;BME280;32866;50.160;14.768;2023-04-16T11:27:50;99476.13;;;24.50;38.14
46876;BME280;32866;50.160;14.768;2023-04-16T11:30:17;99479.81;;;24.77;36.23
46876;BME280;32866;50.160;14.768;2023-04-16T11:32:43;99468.72;;;24.52;36.58
46876;BME280;32866;50.160;14.768;2023-04-16T11:35:16;99469.72;;;24.87;35.27
46876;BME280;32866;50.160;14.768;2023-04-16T11:37:41;99478.34;;;23.62;37.30
46876;BME280;32866;50.160;14.768;2023-04-16T11:40:08;99480.63;;;23.14;38.44
46876;BME280;32866;50.160;14.768;2023-04-16T11:42:38;99471.69;;;23.21;38.66
46876;BME280;32866;50.160;14.768;2023-04-16T11:45:08;99481.50;;;23.28;39.24
46876;BME280;32866;50.160;14.768;2023-04-16T11:47:47;99474.00;;;23.85;35.93
46876;BME280;32866;50.160;14.768;2023-04-16T11:52:45;99448.97;;;23.00;38.46
46876;BME280;32866;50.160;14.768;2023-04-16T11:55:11;99453.72;;;21.67;41.14
46876;BME280;32866;50.160;14.768;2023-04-16T11:57:36;99480.06;;;23.21;40.76
46876;BME280;32866;50.160;14.768;2023-04-16T12:00:02;99481.84;;;22.16;42.73
46876;BME280;32866;50.160;14.768;2023-04-16T12:02:43;99475.53;;;22.57;40.53
46876;BME280;32866;50.160;14.768;2023-04-16T12:05:32;99476.16;;;22.39;39.65
46876;BME280;32866;50.160;14.768;2023-04-16T12:08:10;99473.78;;;23.83;40.78
46876;BME280;32866;50.160;14.768;2023-04-16T12:10:37;99462.88;;;23.06;40.67
46876;BME280;32866;50.160;14.768;2023-04-16T12:13:16;99472.75;;;22.82;42.08
46876;BME280;32866;50.160;14.768;2023-04-16T12:15:43;99444.63;;;23.05;41.89
46876;BME280;32866;50.160;14.768;2023-04-16T12:18:09;99439.38;;;22.95;40.31
46876;BME280;32866;50.160;14.768;2023-04-16T12:20:39;99469.63;;;21.78;42.42
46876;BME280;32866;50.160;14.768;2023-04-16T12:23:06;99481.16;;;20.61;43.27
46876;BME280;32866;50.160;14.768;2023-04-16T12:25:32;99445.44;;;19.00;45.54
46876;BME280;32866;50.160;14.768;2023-04-16T12:27:58;99448.94;;;18.63;47.75
46876;BME280;32866;50.160;14.768;2023-04-16T12:30:24;99472.34;;;18.04;51.37
46876;BME280;32866;50.160;14.768;2023-04-16T12:33:13;99465.94;;;18.44;48.46
46876;BME280;32866;50.160;14.768;2023-04-16T12:35:39;99459.59;;;18.12;49.85
46876;BME280;32866;50.160;14.768;2023-04-16T12:38:06;99470.19;;;18.98;47.96
46876;BME280;32866;50.160;14.768;2023-04-16T12:40:32;99456.31;;;20.07;46.56
46876;BME280;32866;50.160;14.768;2023-04-16T12:42:57;99451.69;;;21.62;42.85
46876;BME280;32866;50.160;14.768;2023-04-16T12:45:23;99465.47;;;21.15;46.31
46876;BME280;32866;50.160;14.768;2023-04-16T12:47:48;99457.00;;;22.54;42.55
46876;BME280;32866;50.160;14.768;2023-04-16T12:50:14;99463.91;;;22.78;40.97
46876;BME280;32866;50.160;14.768;2023-04-16T12:52:40;99440.53;;;24.31;38.49